Terminal Aerodrome Forecast
Issued by NWS

Home | Current Version | Previous Version | Text Only | Print | Product List | Glossary On
Versions: 1 2 3 4 5 6 7 8 9 10 11 12 13 14 15 16 17 18
000
FTUS43 KGRR 190205 AAA
TAFMKG
TAF AMD
KMKG 190205Z 1902/1924 15014G24KT P6SM BKN200
     FM191200 18008KT P6SM VCSH OVC015
     FM191500 17006KT 2SM BR OVC008
     FM191800 14007KT 1SM -RA BR OVC004=

USA.gov is the U.S. government's official web portal to all federal, state and local government web resources and services.